sensor_id;sensor_type;location;lat;lon;timestamp;pressure;altitude;pressure_sealevel;temperature;humidity
78121;BME280;67585;44.802;10.332;2023-04-24T00:01:42;100059.31;;;17.79;49.16
78121;BME280;67585;44.802;10.332;2023-04-24T00:04:08;100054.84;;;18.09;48.57
78121;BME280;67585;44.802;10.332;2023-04-24T00:06:36;100060.94;;;17.88;48.66
78121;BME280;67585;44.802;10.332;2023-04-24T00:09:03;100071.66;;;17.67;49.68
78121;BME280;67585;44.802;10.332;2023-04-24T00:11:29;100066.53;;;17.66;50.26
78121;BME280;67585;44.802;10.332;2023-04-24T00:13:56;100068.31;;;17.88;49.18
78121;BME280;67585;44.802;10.332;2023-04-24T00:16:22;100073.94;;;17.91;48.71
78121;BME280;67585;44.802;10.332;2023-04-24T00:18:47;100091.84;;;17.66;49.46
78121;BME280;67585;44.802;10.332;2023-04-24T00:21:13;100094.25;;;17.68;49.44
78121;BME280;67585;44.802;10.332;2023-04-24T00:23:40;100111.84;;;17.62;49.46
78121;BME280;67585;44.802;10.332;2023-04-24T00:26:05;100097.56;;;17.39;50.35
78121;BME280;67585;44.802;10.332;2023-04-24T00:28:30;100112.41;;;17.15;52.97
78121;BME280;67585;44.802;10.332;2023-04-24T00:30:56;100099.88;;;16.97;55.35
78121;BME280;67585;44.802;10.332;2023-04-24T00:33:21;100084.84;;;16.45;57.40
78121;BME280;67585;44.802;10.332;2023-04-24T00:35:46;100069.75;;;16.93;57.98
78121;BME280;67585;44.802;10.332;2023-04-24T00:38:12;100065.38;;;16.83;60.60
78121;BME280;67585;44.802;10.332;2023-04-24T00:40:37;100060.13;;;16.56;63.41
78121;BME280;67585;44.802;10.332;2023-04-24T00:43:03;100071.66;;;16.61;64.74
78121;BME280;67585;44.802;10.332;2023-04-24T00:45:28;100076.97;;;16.66;64.45
78121;BME280;67585;44.802;10.332;2023-04-24T00:47:56;100066.38;;;16.56;65.34
78121;BME280;67585;44.802;10.332;2023-04-24T00:50:22;100046.41;;;16.30;65.04
78121;BME280;67585;44.802;10.332;2023-04-24T00:52:48;100050.94;;;16.43;65.47
78121;BME280;67585;44.802;10.332;2023-04-24T00:55:14;100049.69;;;16.49;65.90
78121;BME280;67585;44.802;10.332;2023-04-24T00:57:40;100053.41;;;16.53;65.53
78121;BME280;67585;44.802;10.332;2023-04-24T01:00:06;100055.78;;;16.55;66.58
78121;BME280;67585;44.802;10.332;2023-04-24T01:02:38;100064.34;;;16.39;66.57
78121;BME280;67585;44.802;10.332;2023-04-24T01:05:07;100050.69;;;16.53;64.82
78121;BME280;67585;44.802;10.332;2023-04-24T01:07:33;100061.28;;;16.63;65.96
78121;BME280;67585;44.802;10.332;2023-04-24T01:09:59;100059.06;;;16.65;66.61
78121;BME280;67585;44.802;10.332;2023-04-24T01:12:25;100045.16;;;16.76;66.42
78121;BME280;67585;44.802;10.332;2023-04-24T01:14:50;100045.81;;;16.73;66.44
78121;BME280;67585;44.802;10.332;2023-04-24T01:17:16;100037.56;;;16.86;66.98
78121;BME280;67585;44.802;10.332;2023-04-24T01:19:41;100043.97;;;16.91;67.81
78121;BME280;67585;44.802;10.332;2023-04-24T01:22:16;100038.13;;;16.75;66.47
78121;BME280;67585;44.802;10.332;2023-04-24T01:24:42;100037.75;;;16.59;67.20
78121;BME280;67585;44.802;10.332;2023-04-24T01:27:09;100040.31;;;16.64;66.90
78121;BME280;67585;44.802;10.332;2023-04-24T01:29:35;100027.19;;;16.26;66.13
78121;BME280;67585;44.802;10.332;2023-04-24T01:32:01;100041.75;;;16.30;66.01
78121;BME280;67585;44.802;10.332;2023-04-24T01:34:27;100039.34;;;16.60;64.22
78121;BME280;67585;44.802;10.332;2023-04-24T01:36:52;100033.66;;;16.39;63.96
78121;BME280;67585;44.802;10.332;2023-04-24T01:39:18;100043.97;;;16.59;63.04
78121;BME280;67585;44.802;10.332;2023-04-24T01:41:45;100041.03;;;16.38;63.53
78121;BME280;67585;44.802;10.332;2023-04-24T01:44:11;100036.53;;;16.11;64.37
78121;BME280;67585;44.802;10.332;2023-04-24T01:46:37;100038.38;;;16.24;65.11
78121;BME280;67585;44.802;10.332;2023-04-24T01:49:03;100029.53;;;15.88;65.92
78121;BME280;67585;44.802;10.332;2023-04-24T01:51:28;100019.25;;;15.48;67.03
78121;BME280;67585;44.802;10.332;2023-04-24T01:53:55;100011.75;;;15.68;66.67
78121;BME280;67585;44.802;10.332;2023-04-24T01:56:21;100013.03;;;15.84;65.17
78121;BME280;67585;44.802;10.332;2023-04-24T01:58:49;100021.84;;;15.53;67.57
78121;BME280;67585;44.802;10.332;2023-04-24T02:01:18;100021.00;;;15.80;66.28
78121;BME280;67585;44.802;10.332;2023-04-24T02:03:44;100007.06;;;15.59;66.99
78121;BME280;67585;44.802;10.332;2023-04-24T02:06:09;100011.66;;;15.00;67.70
78121;BME280;67585;44.802;10.332;2023-04-24T02:08:35;100022.78;;;15.12;68.30
78121;BME280;67585;44.802;10.332;2023-04-24T02:11:00;100019.63;;;15.19;68.18
78121;BME280;67585;44.802;10.332;2023-04-24T02:13:27;100025.00;;;15.47;66.70
78121;BME280;67585;44.802;10.332;2023-04-24T02:15:52;100024.25;;;15.32;67.48
78121;BME280;67585;44.802;10.332;2023-04-24T02:18:18;100032.28;;;15.24;67.21
78121;BME280;67585;44.802;10.332;2023-04-24T02:20:43;100052.81;;;15.16;67.21
78121;BME280;67585;44.802;10.332;2023-04-24T02:23:09;100052.72;;;14.93;68.59
78121;BME280;67585;44.802;10.332;2023-04-24T02:25:34;100032.41;;;15.18;67.81
78121;BME280;67585;44.802;10.332;2023-04-24T02:28:00;100052.50;;;14.90;68.10
78121;BME280;67585;44.802;10.332;2023-04-24T02:30:25;100024.53;;;15.31;67.00
78121;BME280;67585;44.802;10.332;2023-04-24T02:32:50;100030.38;;;15.24;66.76
78121;BME280;67585;44.802;10.332;2023-04-24T02:35:16;100036.81;;;15.65;66.29
78121;BME280;67585;44.802;10.332;2023-04-24T02:37:42;100035.75;;;15.52;67.86
78121;BME280;67585;44.802;10.332;2023-04-24T02:40:08;100038.38;;;15.79;66.59
78121;BME280;67585;44.802;10.332;2023-04-24T02:42:33;100044.03;;;15.83;66.98
78121;BME280;67585;44.802;10.332;2023-04-24T02:44:59;100052.84;;;15.89;66.87
78121;BME280;67585;44.802;10.332;2023-04-24T02:47:24;100047.28;;;15.94;67.00
78121;BME280;67585;44.802;10.332;2023-04-24T02:49:50;100053.13;;;15.87;67.22
78121;BME280;67585;44.802;10.332;2023-04-24T02:52:15;100053.13;;;15.87;67.37
78121;BME280;67585;44.802;10.332;2023-04-24T02:54:42;100062.28;;;15.91;67.28
78121;BME280;67585;44.802;10.332;2023-04-24T02:57:07;100051.72;;;15.90;66.73
78121;BME280;67585;44.802;10.332;2023-04-24T02:59:32;100045.84;;;15.74;66.39
78121;BME280;67585;44.802;10.332;2023-04-24T03:01:58;100044.75;;;15.97;65.99
78121;BME280;67585;44.802;10.332;2023-04-24T03:04:23;100032.22;;;15.88;66.67
78121;BME280;67585;44.802;10.332;2023-04-24T03:06:49;100026.69;;;15.93;67.13
78121;BME280;67585;44.802;10.332;2023-04-24T03:09:17;100037.03;;;15.91;67.28
78121;BME280;67585;44.802;10.332;2023-04-24T03:11:43;100032.16;;;15.65;68.13
78121;BME280;67585;44.802;10.332;2023-04-24T03:14:08;100043.03;;;15.79;67.54
78121;BME280;67585;44.802;10.332;2023-04-24T03:16:33;100037.72;;;15.74;67.07
78121;BME280;67585;44.802;10.332;2023-04-24T03:18:59;100061.25;;;15.65;67.65
78121;BME280;67585;44.802;10.332;2023-04-24T03:21:24;100054.97;;;15.42;67.89
78121;BME280;67585;44.802;10.332;2023-04-24T03:23:50;100050.41;;;15.51;68.58
78121;BME280;67585;44.802;10.332;2023-04-24T03:26:16;100058.81;;;15.63;68.15
78121;BME280;67585;44.802;10.332;2023-04-24T03:28:41;100050.28;;;15.70;67.82
78121;BME280;67585;44.802;10.332;2023-04-24T03:31:07;100055.31;;;15.76;67.66
78121;BME280;67585;44.802;10.332;2023-04-24T03:33:33;100063.66;;;15.66;67.39
78121;BME280;67585;44.802;10.332;2023-04-24T03:35:58;100061.53;;;15.63;67.34
78121;BME280;67585;44.802;10.332;2023-04-24T03:38:23;100063.88;;;15.70;67.99
78121;BME280;67585;44.802;10.332;2023-04-24T03:40:49;100075.03;;;15.68;68.03
78121;BME280;67585;44.802;10.332;2023-04-24T03:43:14;100068.25;;;15.79;67.77
78121;BME280;67585;44.802;10.332;2023-04-24T03:45:39;100061.91;;;15.84;67.11
78121;BME280;67585;44.802;10.332;2023-04-24T03:48:05;100061.03;;;15.75;67.17
78121;BME280;67585;44.802;10.332;2023-04-24T03:50:30;100039.72;;;15.68;67.05
78121;BME280;67585;44.802;10.332;2023-04-24T03:52:56;100058.63;;;15.73;66.51
78121;BME280;67585;44.802;10.332;2023-04-24T03:55:21;100051.91;;;15.57;66.67
78121;BME280;67585;44.802;10.332;2023-04-24T03:57:46;100029.19;;;15.53;67.89
78121;BME280;67585;44.802;10.332;2023-04-24T04:00:12;100047.78;;;15.73;67.54
78121;BME280;67585;44.802;10.332;2023-04-24T04:02:37;100050.38;;;16.01;66.81
78121;BME280;67585;44.802;10.332;2023-04-24T04:05:03;100050.78;;;15.94;68.10
78121;BME280;67585;44.802;10.332;2023-04-24T04:07:28;100043.94;;;15.97;67.40
78121;BME280;67585;44.802;10.332;2023-04-24T04:09:55;100045.75;;;15.65;68.46
78121;BME280;67585;44.802;10.332;2023-04-24T04:12:20;100042.72;;;15.80;69.21
78121;BME280;67585;44.802;10.332;2023-04-24T04:14:45;100061.84;;;15.62;69.75
78121;BME280;67585;44.802;10.332;2023-04-24T04:17:11;100051.16;;;15.79;68.87
78121;BME280;67585;44.802;10.332;2023-04-24T04:19:36;100045.06;;;15.73;69.12
78121;BME280;67585;44.802;10.332;2023-04-24T04:22:02;100040.81;;;15.81;68.98
78121;BME280;67585;44.802;10.332;2023-04-24T04:24:27;100034.94;;;15.51;69.94
78121;BME280;67585;44.802;10.332;2023-04-24T04:26:53;100025.88;;;15.56;69.29
78121;BME280;67585;44.802;10.332;2023-04-24T04:29:22;100040.03;;;15.67;69.59
78121;BME280;67585;44.802;10.332;2023-04-24T04:31:48;100035.00;;;15.60;69.81
78121;BME280;67585;44.802;10.332;2023-04-24T04:34:13;100031.50;;;15.59;69.95
78121;BME280;67585;44.802;10.332;2023-04-24T04:36:40;100038.72;;;15.64;70.41
78121;BME280;67585;44.802;10.332;2023-04-24T04:39:06;100058.81;;;15.63;70.72
78121;BME280;67585;44.802;10.332;2023-04-24T04:41:32;100052.09;;;15.60;70.77
78121;BME280;67585;44.802;10.332;2023-04-24T04:44:00;100049.09;;;15.62;70.03
78121;BME280;67585;44.802;10.332;2023-04-24T04:46:25;100039.56;;;15.51;71.43
78121;BME280;67585;44.802;10.332;2023-04-24T04:48:52;100039.34;;;15.61;71.39
78121;BME280;67585;44.802;10.332;2023-04-24T04:51:18;100051.53;;;15.50;72.42
78121;BME280;67585;44.802;10.332;2023-04-24T04:53:43;100037.81;;;15.32;72.22
78121;BME280;67585;44.802;10.332;2023-04-24T04:56:08;100042.31;;;15.37;71.96
78121;BME280;67585;44.802;10.332;2023-04-24T04:58:34;100036.38;;;15.35;70.53
78121;BME280;67585;44.802;10.332;2023-04-24T05:00:59;100033.13;;;14.96;73.10
78121;BME280;67585;44.802;10.332;2023-04-24T05:03:24;100025.44;;;14.43;76.58
78121;BME280;67585;44.802;10.332;2023-04-24T05:05:50;100004.66;;;14.25;77.93
78121;BME280;67585;44.802;10.332;2023-04-24T05:08:15;100006.69;;;14.00;78.61
78121;BME280;67585;44.802;10.332;2023-04-24T05:10:41;100009.88;;;14.49;76.53
78121;BME280;67585;44.802;10.332;2023-04-24T05:13:06;100018.66;;;15.01;73.86
78121;BME280;67585;44.802;10.332;2023-04-24T05:15:32;100003.47;;;15.14;73.88
78121;BME280;67585;44.802;10.332;2023-04-24T05:17:57;100008.09;;;15.13;74.34
78121;BME280;67585;44.802;10.332;2023-04-24T05:20:23;100005.78;;;15.07;73.96
78121;BME280;67585;44.802;10.332;2023-04-24T05:22:48;100011.19;;;15.71;70.87
78121;BME280;67585;44.802;10.332;2023-04-24T05:25:13;100032.22;;;16.10;69.18
78121;BME280;67585;44.802;10.332;2023-04-24T05:27:40;100022.88;;;16.56;67.42
78121;BME280;67585;44.802;10.332;2023-04-24T05:30:06;100021.34;;;16.73;66.58
78121;BME280;67585;44.802;10.332;2023-04-24T05:32:32;100043.91;;;17.57;62.85
78121;BME280;67585;44.802;10.332;2023-04-24T05:34:58;100050.31;;;17.52;62.72
78121;BME280;67585;44.802;10.332;2023-04-24T05:37:23;100039.44;;;17.52;62.50
78121;BME280;67585;44.802;10.332;2023-04-24T05:39:49;100032.16;;;15.65;70.19
78121;BME280;67585;44.802;10.332;2023-04-24T05:42:14;100040.94;;;15.26;72.39
78121;BME280;67585;44.802;10.332;2023-04-24T05:44:40;100040.69;;;15.36;72.20
78121;BME280;67585;44.802;10.332;2023-04-24T05:47:05;100049.06;;;15.26;72.27
78121;BME280;67585;44.802;10.332;2023-04-24T05:49:31;100037.03;;;15.18;72.63
78121;BME280;67585;44.802;10.332;2023-04-24T05:51:57;100046.66;;;15.24;72.60
78121;BME280;67585;44.802;10.332;2023-04-24T05:54:22;100047.88;;;15.18;73.10
78121;BME280;67585;44.802;10.332;2023-04-24T05:56:49;100051.41;;;15.05;72.92
78121;BME280;67585;44.802;10.332;2023-04-24T05:59:14;100053.41;;;14.99;73.28
78121;BME280;67585;44.802;10.332;2023-04-24T06:01:40;100057.13;;;15.17;73.56
78121;BME280;67585;44.802;10.332;2023-04-24T06:04:05;100069.69;;;15.27;72.69
78121;BME280;67585;44.802;10.332;2023-04-24T06:06:31;100076.69;;;15.42;72.59
78121;BME280;67585;44.802;10.332;2023-04-24T06:08:57;100076.19;;;15.39;71.96
78121;BME280;67585;44.802;10.332;2023-04-24T06:11:24;100083.25;;;15.27;73.12
78121;BME280;67585;44.802;10.332;2023-04-24T06:13:50;100085.66;;;15.14;73.78
78121;BME280;67585;44.802;10.332;2023-04-24T06:16:15;100080.72;;;15.16;73.60
78121;BME280;67585;44.802;10.332;2023-04-24T06:18:41;100085.66;;;15.28;72.90
78121;BME280;67585;44.802;10.332;2023-04-24T06:21:06;100069.47;;;15.23;73.36
78121;BME280;67585;44.802;10.332;2023-04-24T06:23:31;100077.22;;;15.30;72.83
78121;BME280;67585;44.802;10.332;2023-04-24T06:25:58;100072.28;;;15.18;73.53
78121;BME280;67585;44.802;10.332;2023-04-24T06:28:24;100065.75;;;15.33;73.13
78121;BME280;67585;44.802;10.332;2023-04-24T06:30:49;100065.34;;;15.26;72.98
78121;BME280;67585;44.802;10.332;2023-04-24T06:33:16;100056.75;;;15.10;73.34
78121;BME280;67585;44.802;10.332;2023-04-24T06:35:41;100054.81;;;15.10;73.39
78121;BME280;67585;44.802;10.332;2023-04-24T06:38:07;100054.31;;;15.22;72.56
78121;BME280;67585;44.802;10.332;2023-04-24T06:40:32;100053.41;;;15.27;72.03
78121;BME280;67585;44.802;10.332;2023-04-24T06:42:58;100052.84;;;15.38;71.90
78121;BME280;67585;44.802;10.332;2023-04-24T06:45:25;100051.69;;;15.67;70.99
78121;BME280;67585;44.802;10.332;2023-04-24T06:47:50;100063.31;;;16.04;69.73
78121;BME280;67585;44.802;10.332;2023-04-24T06:50:16;100068.91;;;16.21;68.88
78121;BME280;67585;44.802;10.332;2023-04-24T06:52:42;100067.00;;;16.31;68.45
78121;BME280;67585;44.802;10.332;2023-04-24T06:55:07;100083.66;;;16.29;68.67
78121;BME280;67585;44.802;10.332;2023-04-24T06:57:33;100084.34;;;16.66;68.08
78121;BME280;67585;44.802;10.332;2023-04-24T06:59:58;100081.13;;;16.95;67.83
78121;BME280;67585;44.802;10.332;2023-04-24T07:02:24;100082.00;;;16.82;66.60
78121;BME280;67585;44.802;10.332;2023-04-24T07:04:50;100083.34;;;16.93;66.76
78121;BME280;67585;44.802;10.332;2023-04-24T07:07:15;100087.47;;;16.82;66.17
78121;BME280;67585;44.802;10.332;2023-04-24T07:09:41;100094.00;;;17.21;64.94
78121;BME280;67585;44.802;10.332;2023-04-24T07:12:08;100084.72;;;17.30;64.47
78121;BME280;67585;44.802;10.332;2023-04-24T07:14:33;100080.25;;;17.35;64.54
78121;BME280;67585;44.802;10.332;2023-04-24T07:16:58;100084.72;;;17.30;64.98
78121;BME280;67585;44.802;10.332;2023-04-24T07:19:24;100074.22;;;17.64;64.14
78121;BME280;67585;44.802;10.332;2023-04-24T07:21:49;100080.94;;;17.75;63.77
78121;BME280;67585;44.802;10.332;2023-04-24T07:24:15;100077.88;;;17.59;63.52
78121;BME280;67585;44.802;10.332;2023-04-24T07:26:40;100075.50;;;17.58;63.54
78121;BME280;67585;44.802;10.332;2023-04-24T07:29:07;100091.78;;;17.32;63.46
78121;BME280;67585;44.802;10.332;2023-04-24T07:31:32;100097.78;;;17.68;62.81
78121;BME280;67585;44.802;10.332;2023-04-24T07:33:57;100101.63;;;17.67;63.82
78121;BME280;67585;44.802;10.332;2023-04-24T07:36:23;100079.66;;;17.46;64.57
78121;BME280;67585;44.802;10.332;2023-04-24T07:38:49;100088.16;;;17.54;63.29
78121;BME280;67585;44.802;10.332;2023-04-24T07:41:15;100087.69;;;17.78;62.56
78121;BME280;67585;44.802;10.332;2023-04-24T07:43:41;100101.00;;;18.14;61.35
78121;BME280;67585;44.802;10.332;2023-04-24T07:46:08;100101.16;;;18.26;62.62
78121;BME280;67585;44.802;10.332;2023-04-24T07:48:34;100102.16;;;17.87;60.75
78121;BME280;67585;44.802;10.332;2023-04-24T07:50:59;100106.31;;;17.84;62.71
78121;BME280;67585;44.802;10.332;2023-04-24T07:53:24;100104.03;;;17.86;62.16
78121;BME280;67585;44.802;10.332;2023-04-24T07:55:50;100098.56;;;18.39;60.16
78121;BME280;67585;44.802;10.332;2023-04-24T07:58:15;100094.88;;;18.43;59.16
78121;BME280;67585;44.802;10.332;2023-04-24T08:00:41;100104.13;;;18.60;58.54
78121;BME280;67585;44.802;10.332;2023-04-24T08:03:06;100104.91;;;19.37;57.16
78121;BME280;67585;44.802;10.332;2023-04-24T08:05:31;100108.59;;;19.41;57.38
78121;BME280;67585;44.802;10.332;2023-04-24T08:07:58;100110.88;;;19.09;58.52
78121;BME280;67585;44.802;10.332;2023-04-24T08:10:23;100101.97;;;19.21;57.12
78121;BME280;67585;44.802;10.332;2023-04-24T08:12:49;100093.81;;;19.12;55.94
78121;BME280;67585;44.802;10.332;2023-04-24T08:15:15;100097.06;;;19.35;54.84
78121;BME280;67585;44.802;10.332;2023-04-24T08:17:40;100103.88;;;19.50;55.31
78121;BME280;67585;44.802;10.332;2023-04-24T08:20:07;100102.16;;;19.46;55.87
78121;BME280;67585;44.802;10.332;2023-04-24T08:22:38;100095.94;;;19.36;56.18
78121;BME280;67585;44.802;10.332;2023-04-24T08:25:04;100094.13;;;19.91;55.00
78121;BME280;67585;44.802;10.332;2023-04-24T08:27:30;100098.41;;;20.01;52.99
78121;BME280;67585;44.802;10.332;2023-04-24T08:29:57;100086.88;;;20.41;50.47
78121;BME280;67585;44.802;10.332;2023-04-24T08:32:23;100094.31;;;20.86;50.80
78121;BME280;67585;44.802;10.332;2023-04-24T08:34:48;100079.00;;;20.85;49.41
78121;BME280;67585;44.802;10.332;2023-04-24T08:37:14;100079.22;;;20.80;50.72
78121;BME280;67585;44.802;10.332;2023-04-24T08:39:39;100076.94;;;20.24;52.17
78121;BME280;67585;44.802;10.332;2023-04-24T08:42:05;100079.91;;;20.77;50.66
78121;BME280;67585;44.802;10.332;2023-04-24T08:44:33;100084.59;;;20.76;51.08
78121;BME280;67585;44.802;10.332;2023-04-24T08:47:00;100089.28;;;20.88;50.50
78121;BME280;67585;44.802;10.332;2023-04-24T08:49:28;100084.50;;;21.34;49.20
78121;BME280;67585;44.802;10.332;2023-04-24T08:51:53;100090.22;;;21.41;49.42
78121;BME280;67585;44.802;10.332;2023-04-24T08:54:20;100088.59;;;21.16;50.26
78121;BME280;67585;44.802;10.332;2023-04-24T08:56:47;100099.91;;;21.26;50.53
78121;BME280;67585;44.802;10.332;2023-04-24T08:59:14;100093.75;;;21.42;50.56
78121;BME280;67585;44.802;10.332;2023-04-24T09:01:40;100102.06;;;21.45;50.07
78121;BME280;67585;44.802;10.332;2023-04-24T09:04:07;100089.41;;;21.04;50.79
78121;BME280;67585;44.802;10.332;2023-04-24T09:06:34;100092.78;;;21.62;49.02
78121;BME280;67585;44.802;10.332;2023-04-24T09:09:01;100092.03;;;21.90;47.61
78121;BME280;67585;44.802;10.332;2023-04-24T09:11:27;100098.59;;;22.01;47.04
78121;BME280;67585;44.802;10.332;2023-04-24T09:13:56;100097.06;;;22.16;47.54
78121;BME280;67585;44.802;10.332;2023-04-24T09:16:21;100099.69;;;21.84;48.39
78121;BME280;67585;44.802;10.332;2023-04-24T09:18:49;100098.44;;;21.41;49.34
78121;BME280;67585;44.802;10.332;2023-04-24T09:21:15;100098.03;;;20.57;51.62
78121;BME280;67585;44.802;10.332;2023-04-24T09:23:41;100086.34;;;21.05;50.27
78121;BME280;67585;44.802;10.332;2023-04-24T09:26:09;100102.44;;;21.44;50.06
78121;BME280;67585;44.802;10.332;2023-04-24T09:28:40;100091.00;;;21.05;50.39
78121;BME280;67585;44.802;10.332;2023-04-24T09:31:07;100108.00;;;20.98;51.50
78121;BME280;67585;44.802;10.332;2023-04-24T09:33:32;100101.09;;;20.55;52.26
78121;BME280;67585;44.802;10.332;2023-04-24T09:35:58;100102.06;;;20.50;53.29
78121;BME280;67585;44.802;10.332;2023-04-24T09:38:34;100099.81;;;20.19;53.38
78121;BME280;67585;44.802;10.332;2023-04-24T09:41:07;100100.59;;;20.99;51.65
78121;BME280;67585;44.802;10.332;2023-04-24T09:43:34;100097.81;;;21.72;48.12
78121;BME280;67585;44.802;10.332;2023-04-24T09:46:06;100082.34;;;22.08;45.01
78121;BME280;67585;44.802;10.332;2023-04-24T09:48:34;100084.06;;;21.85;46.61
78121;BME280;67585;44.802;10.332;2023-04-24T09:51:04;100094.13;;;22.37;45.32
78121;BME280;67585;44.802;10.332;2023-04-24T09:53:32;100103.09;;;22.81;44.33
78121;BME280;67585;44.802;10.332;2023-04-24T09:56:08;100088.25;;;22.23;46.37
78121;BME280;67585;44.802;10.332;2023-04-24T09:58:35;100107.84;;;21.68;47.26
78121;BME280;67585;44.802;10.332;2023-04-24T10:01:01;100106.75;;;20.96;49.41
78121;BME280;67585;44.802;10.332;2023-04-24T10:03:30;100107.66;;;21.89;47.55
78121;BME280;67585;44.802;10.332;2023-04-24T10:06:00;100100.34;;;22.50;46.69
78121;BME280;67585;44.802;10.332;2023-04-24T10:08:26;100094.72;;;22.02;48.26
78121;BME280;67585;44.802;10.332;2023-04-24T10:10:58;100091.22;;;22.46;46.32
78121;BME280;67585;44.802;10.332;2023-04-24T10:13:24;100092.38;;;22.16;45.61
78121;BME280;67585;44.802;10.332;2023-04-24T10:15:50;100072.13;;;21.93;46.79
78121;BME280;67585;44.802;10.332;2023-04-24T10:18:16;100098.66;;;21.48;47.37
78121;BME280;67585;44.802;10.332;2023-04-24T10:20:42;100090.63;;;20.69;49.14
78121;BME280;67585;44.802;10.332;2023-04-24T10:23:08;100099.84;;;21.75;47.64
78121;BME280;67585;44.802;10.332;2023-04-24T10:25:35;100095.78;;;21.97;47.39
78121;BME280;67585;44.802;10.332;2023-04-24T10:28:02;100096.66;;;22.58;45.08
78121;BME280;67585;44.802;10.332;2023-04-24T10:30:33;100103.47;;;22.96;43.33
78121;BME280;67585;44.802;10.332;2023-04-24T10:33:06;100093.03;;;22.70;43.45
78121;BME280;67585;44.802;10.332;2023-04-24T10:35:37;100093.28;;;22.21;44.50
78121;BME280;67585;44.802;10.332;2023-04-24T10:38:12;100084.31;;;22.36;43.31
78121;BME280;67585;44.802;10.332;2023-04-24T10:40:38;100090.41;;;22.29;44.19
78121;BME280;67585;44.802;10.332;2023-04-24T10:43:05;100085.03;;;22.49;42.04
78121;BME280;67585;44.802;10.332;2023-04-24T10:45:33;100093.28;;;22.80;40.63
78121;BME280;67585;44.802;10.332;2023-04-24T10:48:04;100083.91;;;23.13;40.46
78121;BME280;67585;44.802;10.332;2023-04-24T10:51:10;100090.63;;;22.84;42.38
78121;BME280;67585;44.802;10.332;2023-04-24T10:53:36;100092.44;;;23.43;41.32
78121;BME280;67585;44.802;10.332;2023-04-24T10:56:06;100095.06;;;23.56;42.16
78121;BME280;67585;44.802;10.332;2023-04-24T10:58:37;100085.22;;;22.72;42.99
78121;BME280;67585;44.802;10.332;2023-04-24T11:01:03;100085.72;;;23.25;42.45
78121;BME280;67585;44.802;10.332;2023-04-24T11:03:31;100085.00;;;23.79;40.65
78121;BME280;67585;44.802;10.332;2023-04-24T11:06:04;100095.59;;;24.20;39.76
78121;BME280;67585;44.802;10.332;2023-04-24T11:08:30;100098.75;;;24.41;39.23
78121;BME280;67585;44.802;10.332;2023-04-24T11:16:31;100090.41;;;23.76;41.19
78121;BME280;67585;44.802;10.332;2023-04-24T11:19:05;100084.00;;;23.52;41.39
78121;BME280;67585;44.802;10.332;2023-04-24T11:21:38;100080.13;;;24.12;39.14
78121;BME280;67585;44.802;10.332;2023-04-24T11:29:41;100067.31;;;23.80;39.78
78121;BME280;67585;44.802;10.332;2023-04-24T11:37:40;100054.63;;;23.95;39.65
78121;BME280;67585;44.802;10.332;2023-04-24T11:40:08;100051.94;;;24.41;37.83
78121;BME280;67585;44.802;10.332;2023-04-24T11:42:39;100056.50;;;24.53;38.57
78121;BME280;67585;44.802;10.332;2023-04-24T11:45:13;100053.22;;;24.67;38.17
78121;BME280;67585;44.802;10.332;2023-04-24T11:47:40;100042.63;;;24.69;37.97
78121;BME280;67585;44.802;10.332;2023-04-24T11:50:08;100048.50;;;24.94;37.95
78121;BME280;67585;44.802;10.332;2023-04-24T11:52:39;100029.56;;;24.43;38.90
78121;BME280;67585;44.802;10.332;2023-04-24T11:55:26;100060.91;;;24.58;38.54
78121;BME280;67585;44.802;10.332;2023-04-24T11:57:55;100060.69;;;24.24;39.33
78121;BME280;67585;44.802;10.332;2023-04-24T12:00:29;100045.13;;;25.31;36.51
78121;BME280;67585;44.802;10.332;2023-04-24T12:03:06;100034.03;;;24.74;37.76
78121;BME280;67585;44.802;10.332;2023-04-24T12:05:32;100037.44;;;24.90;37.58
78121;BME280;67585;44.802;10.332;2023-04-24T12:07:59;100040.38;;;24.32;38.06
78121;BME280;67585;44.802;10.332;2023-04-24T12:10:26;100050.69;;;24.81;37.17
78121;BME280;67585;44.802;10.332;2023-04-24T12:12:52;100041.91;;;24.76;37.90
78121;BME280;67585;44.802;10.332;2023-04-24T12:15:21;100051.25;;;24.67;37.20
78121;BME280;67585;44.802;10.332;2023-04-24T12:17:48;100041.81;;;24.95;35.85
78121;BME280;67585;44.802;10.332;2023-04-24T12:20:15;100050.66;;;24.35;37.08
78121;BME280;67585;44.802;10.332;2023-04-24T12:25:18;100028.78;;;24.92;36.72
78121;BME280;67585;44.802;10.332;2023-04-24T12:27:44;100008.59;;;25.11;36.16
78121;BME280;67585;44.802;10.332;2023-04-24T12:30:13;99990.53;;;25.13;35.07
78121;BME280;67585;44.802;10.332;2023-04-24T12:32:44;99977.81;;;24.52;35.55
78121;BME280;67585;44.802;10.332;2023-04-24T12:35:10;100031.84;;;24.60;37.25
78121;BME280;67585;44.802;10.332;2023-04-24T12:37:36;100010.94;;;24.82;36.75
78121;BME280;67585;44.802;10.332;2023-04-24T12:42:28;100024.66;;;24.79;36.27
78121;BME280;67585;44.802;10.332;2023-04-24T12:44:57;100024.03;;;25.15;34.49
78121;BME280;67585;44.802;10.332;2023-04-24T12:47:24;100028.53;;;24.51;36.37
78121;BME280;67585;44.802;10.332;2023-04-24T12:49:49;100031.66;;;24.72;35.49
78121;BME280;67585;44.802;10.332;2023-04-24T12:52:20;99996.31;;;24.32;35.33
78121;BME280;67585;44.802;10.332;2023-04-24T12:54:45;100023.19;;;24.39;35.66
78121;BME280;67585;44.802;10.332;2023-04-24T12:57:11;100008.16;;;24.79;35.10
78121;BME280;67585;44.802;10.332;2023-04-24T12:59:37;99996.47;;;24.62;35.38